Time;durP1;ratioP1;P1;durP2;ratioP2;P2;SDS_P1;SDS_P2;PMS_P1;PMS_P2;Temp;Humidity;BMP_temperature;BMP_pressure;BME280_temperature;BME280_humidity;BME280_pressure;Samples;Min_cycle;Max_cycle;Signal;HPM_P1;HPM_P2
2021/07/14 00:00:42;;;;;;;5.68;3.20;;;15.70;99.90;;;;;;5071319;28;20214;-71
2021/07/14 00:03:09;;;;;;;5.70;4.10;;;15.70;99.90;;;;;;5070546;28;20206;-72
2021/07/14 00:05:38;;;;;;;3.30;2.60;;;15.70;99.90;;;;;;5071375;28;20206;-73
2021/07/14 00:08:06;;;;;;;5.38;2.28;;;15.70;99.90;;;;;;5071150;28;20213;-71
2021/07/14 00:10:33;;;;;;;4.43;2.45;;;15.70;99.90;;;;;;5071350;28;20285;-70
2021/07/14 00:13:06;;;;;;;3.70;2.95;;;15.70;99.90;;;;;;5071061;28;20259;-74
2021/07/14 00:23:48;;;;;;;3.45;2.13;;;15.60;99.90;;;;;;5070791;28;20224;-74
2021/07/14 00:26:15;;;;;;;2.55;2.30;;;15.60;99.90;;;;;;5069922;28;20210;-72
2021/07/14 00:28:48;;;;;;;2.35;2.15;;;15.60;99.90;;;;;;5070720;28;20210;-74
2021/07/14 00:31:17;;;;;;;4.07;2.95;;;15.60;99.90;;;;;;5070445;28;20198;-71
2021/07/14 00:33:45;;;;;;;3.67;2.85;;;15.60;99.90;;;;;;5070929;28;20206;-73
2021/07/14 00:36:12;;;;;;;4.93;3.10;;;15.60;99.90;;;;;;5070314;28;20201;-71
2021/07/14 00:38:40;;;;;;;4.05;2.60;;;15.60;99.90;;;;;;5070376;28;20226;-71
2021/07/14 00:41:07;;;;;;;6.95;3.20;;;15.60;99.90;;;;;;5069793;28;20209;-70
2021/07/14 00:43:35;;;;;;;3.92;3.35;;;15.60;99.90;;;;;;5070591;28;20210;-70
2021/07/14 00:46:20;;;;;;;4.05;2.95;;;15.50;99.90;;;;;;5070935;28;20209;-69
2021/07/14 00:48:49;;;;;;;4.53;3.08;;;15.50;99.90;;;;;;5070439;28;20661;-69
2021/07/14 00:51:16;;;;;;;3.22;2.88;;;15.50;99.90;;;;;;5069947;28;20210;-70
2021/07/14 00:53:43;;;;;;;4.82;3.40;;;15.50;99.90;;;;;;5070354;28;20610;-70
2021/07/14 00:56:10;;;;;;;6.45;2.58;;;15.60;99.90;;;;;;5070052;28;20206;-70
2021/07/14 00:58:37;;;;;;;3.05;2.47;;;15.50;99.90;;;;;;5070843;28;20237;-70
2021/07/14 01:01:04;;;;;;;4.45;2.47;;;15.50;99.90;;;;;;5070449;28;20259;-70
2021/07/14 01:03:36;;;;;;;3.55;2.85;;;15.50;99.90;;;;;;5070797;28;20260;-70
2021/07/14 01:06:06;;;;;;;3.50;2.70;;;15.50;99.90;;;;;;5070836;28;20210;-68
2021/07/14 01:08:43;;;;;;;4.05;2.88;;;15.50;99.90;;;;;;5071328;28;20202;-70
2021/07/14 01:11:13;;;;;;;5.60;3.28;;;15.50;99.90;;;;;;5069911;28;20233;-70
2021/07/14 01:13:44;;;;;;;3.88;3.20;;;15.50;99.90;;;;;;5070380;28;20254;-70
2021/07/14 01:16:16;;;;;;;5.07;2.92;;;15.60;99.90;;;;;;5072192;28;20255;-70
2021/07/14 01:18:49;;;;;;;4.88;2.95;;;15.60;99.90;;;;;;5074108;28;20774;-69
2021/07/14 01:21:20;;;;;;;4.63;2.58;;;15.50;99.90;;;;;;5074204;28;20255;-69
2021/07/14 01:23:57;;;;;;;4.10;2.92;;;15.60;99.90;;;;;;5074041;28;20255;-69
2021/07/14 01:26:34;;;;;;;6.55;3.13;;;15.60;99.90;;;;;;5073512;28;20221;-70
2021/07/14 01:29:06;;;;;;;3.17;2.75;;;15.60;99.90;;;;;;5074274;28;20209;-70
2021/07/14 01:31:35;;;;;;;3.65;3.33;;;15.50;99.90;;;;;;5074620;28;20297;-70
2021/07/14 01:34:05;;;;;;;5.72;3.00;;;15.50;99.90;;;;;;5074549;28;20210;-71
2021/07/14 01:36:32;;;;;;;4.57;3.03;;;15.60;99.90;;;;;;5074479;28;20270;-70
2021/07/14 01:39:00;;;;;;;3.33;3.03;;;15.60;99.90;;;;;;5073975;28;20237;-69
2021/07/14 01:41:33;;;;;;;5.25;3.17;;;15.50;99.90;;;;;;5073826;28;20561;-71
2021/07/14 01:44:02;;;;;;;2.50;1.90;;;15.60;99.90;;;;;;5074398;28;20206;-69
2021/07/14 01:46:34;;;;;;;3.85;2.67;;;15.60;99.90;;;;;;5074222;28;20210;-70
2021/07/14 01:49:05;;;;;;;4.93;2.22;;;15.60;99.90;;;;;;5074344;28;20206;-70
2021/07/14 01:51:33;;;;;;;4.32;3.08;;;15.60;99.90;;;;;;5073997;28;20695;-69
2021/07/14 01:54:04;;;;;;;4.15;2.20;;;15.60;99.90;;;;;;5073726;28;20267;-70
2021/07/14 01:56:34;;;;;;;5.68;2.70;;;15.60;99.90;;;;;;5074159;28;20207;-69
2021/07/14 01:59:02;;;;;;;2.88;2.30;;;15.60;99.90;;;;;;5073948;28;20325;-69
2021/07/14 02:01:32;;;;;;;8.90;3.10;;;15.60;99.90;;;;;;5073643;28;20583;-69
2021/07/14 02:06:48;;;;;;;3.90;2.85;;;15.50;99.90;;;;;;5073333;28;20259;-69
2021/07/14 02:09:16;;;;;;;3.05;2.60;;;15.50;99.90;;;;;;5072785;28;20230;-69
2021/07/14 02:11:46;;;;;;;9.27;3.40;;;15.50;99.90;;;;;;5073496;28;20206;-69
2021/07/14 02:14:15;;;;;;;5.03;2.78;;;15.50;99.90;;;;;;5073211;28;20206;-69
2021/07/14 02:16:46;;;;;;;3.20;2.50;;;15.50;99.90;;;;;;5073418;28;20210;-69
2021/07/14 02:19:16;;;;;;;5.45;2.90;;;15.50;99.90;;;;;;5059032;28;20222;-69
2021/07/14 02:21:43;;;;;;;4.22;2.95;;;15.60;99.90;;;;;;5073849;28;20206;-69
2021/07/14 02:24:11;;;;;;;4.22;3.40;;;15.50;99.90;;;;;;5072431;28;20255;-69
2021/07/14 02:26:39;;;;;;;5.47;3.97;;;15.50;99.90;;;;;;5072880;28;20311;-70
2021/07/14 02:29:06;;;;;;;6.25;3.03;;;15.60;99.90;;;;;;5072879;28;20234;-69
2021/07/14 02:31:33;;;;;;;4.25;3.08;;;15.50;99.90;;;;;;5073367;28;20210;-69
2021/07/14 02:34:02;;;;;;;4.82;2.95;;;15.50;99.90;;;;;;5073098;28;20662;-69
2021/07/14 02:36:32;;;;;;;5.75;3.42;;;15.50;99.90;;;;;;5072807;28;20210;-69
2021/07/14 02:39:05;;;;;;;6.38;3.80;;;15.50;99.90;;;;;;5073042;28;20230;-68
2021/07/14 02:41:38;;;;;;;4.70;3.05;;;15.50;99.90;;;;;;5073246;28;20666;-68
2021/07/14 02:44:08;;;;;;;5.05;3.25;;;15.50;99.90;;;;;;5070238;28;20208;-70
2021/07/14 02:46:38;;;;;;;3.55;3.15;;;15.50;99.90;;;;;;5072929;28;20241;-69
2021/07/14 02:49:09;;;;;;;5.28;3.25;;;15.50;99.90;;;;;;5072511;28;20210;-68
2021/07/14 02:51:37;;;;;;;6.13;4.20;;;15.50;99.90;;;;;;5072378;28;20210;-69
2021/07/14 02:54:11;;;;;;;5.20;3.53;;;15.60;99.90;;;;;;5072543;28;20567;-69
2021/07/14 02:56:40;;;;;;;5.90;3.80;;;15.50;99.90;;;;;;5072600;28;20203;-68
2021/07/14 02:59:10;;;;;;;5.50;3.10;;;15.50;99.90;;;;;;5072306;28;20234;-72
2021/07/14 03:01:42;;;;;;;3.40;3.10;;;15.50;99.90;;;;;;5072326;28;20206;-70
2021/07/14 03:04:12;;;;;;;7.03;3.88;;;15.50;99.90;;;;;;5072346;28;20272;-69
2021/07/14 03:06:40;;;;;;;5.60;3.10;;;15.50;99.90;;;;;;5072305;28;20260;-69
2021/07/14 03:09:10;;;;;;;6.50;3.75;;;15.50;99.90;;;;;;5071788;28;20275;-69
2021/07/14 03:11:40;;;;;;;5.18;3.17;;;15.50;99.90;;;;;;5072256;28;20595;-69
2021/07/14 03:14:11;;;;;;;6.45;3.70;;;15.50;99.90;;;;;;5072189;28;20214;-70
2021/07/14 03:16:39;;;;;;;10.13;3.67;;;15.50;99.90;;;;;;5072216;28;20214;-70
2021/07/14 03:19:07;;;;;;;10.93;4.55;;;15.50;99.90;;;;;;5071346;28;20230;-69
2021/07/14 03:21:36;;;;;;;5.72;3.20;;;15.50;99.90;;;;;;5072134;28;20206;-68
2021/07/14 03:24:07;;;;;;;4.45;2.85;;;15.50;99.90;;;;;;5072491;28;20210;-68
2021/07/14 03:26:36;;;;;;;4.05;3.15;;;15.50;99.90;;;;;;5072292;28;20297;-69
2021/07/14 03:29:04;;;;;;;4.38;3.88;;;15.50;99.90;;;;;;5072063;28;20731;-68
2021/07/14 03:31:32;;;;;;;6.55;2.95;;;15.50;99.90;;;;;;5072484;28;20217;-69
2021/07/14 03:34:00;;;;;;;3.38;3.08;;;15.40;99.90;;;;;;5072231;28;20589;-68
2021/07/14 03:36:28;;;;;;;7.50;4.55;;;15.50;99.90;;;;;;5071725;28;20206;-69
2021/07/14 03:38:57;;;;;;;3.25;2.95;;;15.50;99.90;;;;;;5071054;28;20767;-69
2021/07/14 03:41:25;;;;;;;9.52;3.78;;;15.50;99.90;;;;;;5071347;28;20676;-68
2021/07/14 03:43:53;;;;;;;4.28;3.30;;;15.40;99.90;;;;;;5071974;28;20268;-68
2021/07/14 03:46:22;;;;;;;6.07;3.42;;;15.40;99.90;;;;;;5071248;28;20202;-68
2021/07/14 03:48:51;;;;;;;4.00;2.90;;;15.40;99.90;;;;;;5071360;28;20214;-70
2021/07/14 03:51:20;;;;;;;4.50;3.40;;;15.40;99.90;;;;;;5070875;28;20206;-71
2021/07/14 03:53:47;;;;;;;5.50;3.58;;;15.40;99.90;;;;;;5071527;28;20210;-70
2021/07/14 03:56:16;;;;;;;6.53;3.53;;;15.40;99.90;;;;;;5071112;28;20244;-71
2021/07/14 03:58:46;;;;;;;3.90;3.20;;;15.40;99.90;;;;;;5071256;28;20578;-70
2021/07/14 04:01:13;;;;;;;4.40;3.15;;;15.40;99.90;;;;;;5070824;28;20214;-69
2021/07/14 04:03:42;;;;;;;5.13;3.95;;;15.40;99.90;;;;;;5071131;28;20641;-70
2021/07/14 04:06:10;;;;;;;4.85;2.70;;;15.40;99.90;;;;;;5070931;28;20210;-70
2021/07/14 04:08:41;;;;;;;5.38;3.25;;;15.40;99.90;;;;;;5071217;28;20209;-69
2021/07/14 04:11:08;;;;;;;7.32;3.42;;;15.40;99.90;;;;;;5070690;28;20256;-69
2021/07/14 04:13:36;;;;;;;5.22;3.20;;;15.40;99.90;;;;;;5071020;28;20259;-69
2021/07/14 04:16:04;;;;;;;7.55;3.10;;;15.50;99.90;;;;;;5071229;28;20214;-71
2021/07/14 04:18:31;;;;;;;3.63;3.00;;;15.40;99.90;;;;;;5071204;28;20209;-69
2021/07/14 04:20:58;;;;;;;7.80;3.03;;;15.50;99.90;;;;;;5071138;28;20230;-69
2021/07/14 04:23:26;;;;;;;4.95;3.03;;;15.40;99.90;;;;;;5070857;28;20504;-69
2021/07/14 04:25:53;;;;;;;8.63;3.47;;;15.40;99.90;;;;;;5070739;28;20218;-69
2021/07/14 04:28:20;;;;;;;3.63;3.05;;;15.50;99.90;;;;;;5070534;28;20216;-70
2021/07/14 04:30:48;;;;;;;6.18;3.72;;;15.40;99.90;;;;;;5070513;28;20265;-70
2021/07/14 04:33:15;;;;;;;4.50;3.47;;;15.40;99.90;;;;;;5070439;28;20198;-69
2021/07/14 04:35:42;;;;;;;6.85;3.03;;;15.50;99.90;;;;;;5070636;28;20575;-69
2021/07/14 04:38:09;;;;;;;5.10;3.30;;;15.50;99.90;;;;;;5070529;28;20206;-69
2021/07/14 04:40:36;;;;;;;7.60;3.17;;;15.40;99.90;;;;;;5070672;28;20644;-70
2021/07/14 04:43:04;;;;;;;8.50;3.15;;;15.50;99.90;;;;;;5071334;28;20206;-69
2021/07/14 04:45:30;;;;;;;7.68;3.50;;;15.50;99.90;;;;;;5070602;28;20213;-70
2021/07/14 04:47:59;;;;;;;3.50;3.20;;;15.50;99.90;;;;;;5070462;28;20256;-70
2021/07/14 04:50:26;;;;;;;5.30;3.58;;;15.50;99.90;;;;;;5070176;28;20214;-70
2021/07/14 04:52:53;;;;;;;5.93;3.47;;;15.50;99.90;;;;;;5070084;28;20210;-70
2021/07/14 04:55:20;;;;;;;5.80;3.28;;;15.40;99.90;;;;;;5070219;28;20206;-69
2021/07/14 04:57:48;;;;;;;4.25;3.28;;;15.40;99.90;;;;;;5070504;28;20202;-71
2021/07/14 05:00:16;;;;;;;8.75;3.97;;;15.50;99.90;;;;;;5070132;28;20225;-70
2021/07/14 05:02:44;;;;;;;5.43;3.25;;;15.50;99.90;;;;;;5070535;28;20216;-70
2021/07/14 05:05:13;;;;;;;5.50;3.50;;;15.50;99.90;;;;;;5070157;28;20232;-69
2021/07/14 05:07:40;;;;;;;5.03;3.70;;;15.50;99.90;;;;;;5070424;28;20293;-71
2021/07/14 05:10:09;;;;;;;6.22;3.33;;;15.50;99.90;;;;;;5069984;28;20769;-70
2021/07/14 05:12:36;;;;;;;5.43;3.53;;;15.50;99.90;;;;;;5070632;28;20210;-70
2021/07/14 05:15:03;;;;;;;4.53;3.28;;;15.50;99.90;;;;;;5070620;28;20206;-71
2021/07/14 05:17:30;;;;;;;5.97;3.53;;;15.50;99.90;;;;;;5070612;28;20209;-71
2021/07/14 05:19:57;;;;;;;4.32;3.80;;;15.50;99.90;;;;;;5070291;28;20667;-71
2021/07/14 05:22:26;;;;;;;6.03;3.92;;;15.50;99.90;;;;;;5069698;28;20214;-71
2021/07/14 05:24:53;;;;;;;8.80;3.95;;;15.60;99.90;;;;;;5070377;28;20214;-71
2021/07/14 05:27:20;;;;;;;6.55;4.07;;;15.60;99.90;;;;;;5069763;28;20252;-70
2021/07/14 05:29:47;;;;;;;7.63;3.45;;;15.60;99.90;;;;;;5070544;28;20206;-70
2021/07/14 05:32:14;;;;;;;8.82;4.97;;;15.70;99.90;;;;;;5069606;28;20206;-70
2021/07/14 05:34:41;;;;;;;7.43;3.65;;;15.70;99.90;;;;;;5070306;28;20259;-71
2021/07/14 05:37:08;;;;;;;8.10;4.07;;;15.60;99.90;;;;;;5069691;28;20259;-71
2021/07/14 05:39:36;;;;;;;6.90;3.97;;;15.70;99.90;;;;;;5070190;28;20226;-70
2021/07/14 05:42:04;;;;;;;6.75;3.95;;;15.70;99.90;;;;;;5070603;28;20256;-69
2021/07/14 05:44:31;;;;;;;10.82;4.05;;;15.70;99.90;;;;;;5069957;28;20206;-69
2021/07/14 05:46:58;;;;;;;8.50;4.18;;;15.80;99.90;;;;;;5069758;28;20210;-70
2021/07/14 05:49:25;;;;;;;5.07;3.63;;;15.80;99.90;;;;;;5069448;28;20259;-70
2021/07/14 05:51:52;;;;;;;5.65;3.75;;;15.80;99.90;;;;;;5070001;28;20203;-70
2021/07/14 05:54:20;;;;;;;4.47;3.40;;;15.80;99.90;;;;;;5069718;28;20278;-71
2021/07/14 05:56:48;;;;;;;5.85;4.40;;;15.80;99.90;;;;;;5069743;28;20248;-70
2021/07/14 05:59:15;;;;;;;4.93;3.60;;;15.80;99.90;;;;;;5069429;28;20631;-69
2021/07/14 06:01:42;;;;;;;8.40;3.55;;;15.90;99.90;;;;;;5070560;28;20244;-70
2021/07/14 06:04:09;;;;;;;9.38;4.00;;;15.90;99.90;;;;;;5072893;28;20203;-71
2021/07/14 06:06:36;;;;;;;5.35;4.15;;;15.90;99.90;;;;;;5073646;28;20263;-70
2021/07/14 06:09:03;;;;;;;7.57;4.03;;;15.90;99.90;;;;;;5073999;28;20249;-69
2021/07/14 06:11:30;;;;;;;10.05;4.05;;;15.90;99.90;;;;;;5073296;28;20647;-69
2021/07/14 06:13:59;;;;;;;2.88;2.60;;;16.00;99.90;;;;;;5073208;28;20248;-70
2021/07/14 06:16:26;;;;;;;4.97;3.10;;;16.10;99.90;;;;;;5072666;28;20909;-70
2021/07/14 06:18:53;;;;;;;7.00;4.22;;;16.20;99.90;;;;;;5073343;28;20244;-69
2021/07/14 06:21:21;;;;;;;5.60;3.28;;;16.20;99.90;;;;;;5072814;28;20226;-69
2021/07/14 06:23:48;;;;;;;6.95;3.78;;;16.20;99.90;;;;;;5073319;28;20635;-70
2021/07/14 06:26:15;;;;;;;4.35;3.13;;;16.20;99.90;;;;;;5072605;28;20210;-70
2021/07/14 06:28:42;;;;;;;7.97;3.65;;;16.10;99.90;;;;;;5072789;28;20347;-70
2021/07/14 06:31:11;;;;;;;5.00;3.75;;;16.20;99.90;;;;;;5072766;28;20210;-69
2021/07/14 06:33:39;;;;;;;4.80;2.90;;;16.10;99.90;;;;;;5073435;28;20206;-69
2021/07/14 06:36:07;;;;;;;9.82;4.43;;;16.10;99.90;;;;;;5073051;28;20240;-69
2021/07/14 06:38:35;;;;;;;5.07;3.30;;;16.10;99.90;;;;;;5073531;28;20201;-69
2021/07/14 06:41:02;;;;;;;3.92;3.17;;;16.10;99.90;;;;;;5073012;28;20280;-69
2021/07/14 06:43:41;;;;;;;6.22;3.20;;;16.10;99.90;;;;;;5072432;28;20206;-69
2021/07/14 06:46:10;;;;;;;6.47;3.33;;;16.20;99.90;;;;;;5072494;28;20210;-69
2021/07/14 06:48:37;;;;;;;8.60;3.80;;;16.40;99.90;;;;;;5073178;28;20210;-70
2021/07/14 06:51:05;;;;;;;5.57;3.28;;;16.40;99.90;;;;;;5072355;28;20203;-69
2021/07/14 06:53:32;;;;;;;7.68;3.10;;;16.50;99.90;;;;;;5072814;28;20251;-69
2021/07/14 06:55:59;;;;;;;5.93;3.00;;;16.50;99.90;;;;;;5072704;28;20214;-69
2021/07/14 06:58:26;;;;;;;4.38;3.33;;;16.50;99.90;;;;;;5071972;28;20264;-72
2021/07/14 07:00:53;;;;;;;4.30;2.80;;;16.50;99.90;;;;;;5072933;28;20226;-70
2021/07/14 07:03:22;;;;;;;5.25;2.92;;;16.50;99.90;;;;;;5072100;28;20210;-69
2021/07/14 07:05:50;;;;;;;5.63;3.58;;;16.50;99.90;;;;;;5072542;28;20260;-70
2021/07/14 07:08:17;;;;;;;4.05;3.00;;;16.60;99.90;;;;;;5072111;28;20214;-69
2021/07/14 07:10:46;;;;;;;5.43;3.45;;;16.70;99.90;;;;;;5072367;28;20210;-70
2021/07/14 07:13:15;;;;;;;4.60;3.25;;;16.70;99.90;;;;;;5070714;28;20691;-71
2021/07/14 07:15:43;;;;;;;3.85;2.50;;;16.60;99.90;;;;;;5072151;28;20757;-71
2021/07/14 07:18:10;;;;;;;7.90;4.55;;;16.60;99.90;;;;;;5071849;28;20764;-71
2021/07/14 07:20:38;;;;;;;4.85;3.40;;;16.60;99.90;;;;;;5072068;28;20225;-71
2021/07/14 07:23:06;;;;;;;3.55;2.47;;;16.50;99.90;;;;;;5072102;28;20746;-71
2021/07/14 07:25:33;;;;;;;2.90;2.53;;;16.50;99.90;;;;;;5072208;28;20206;-70
2021/07/14 07:28:02;;;;;;;3.75;2.80;;;16.50;99.90;;;;;;5072226;28;20252;-69
2021/07/14 07:30:29;;;;;;;4.95;2.53;;;16.50;99.90;;;;;;5071784;28;20213;-69
2021/07/14 07:32:56;;;;;;;3.55;2.85;;;16.50;99.90;;;;;;5071930;28;20574;-71
2021/07/14 07:35:22;;;;;;;5.05;3.03;;;16.50;99.90;;;;;;5071626;28;20279;-71
2021/07/14 07:37:51;;;;;;;4.45;2.75;;;16.50;99.90;;;;;;5058026;28;20206;-71
2021/07/14 07:40:19;;;;;;;7.18;2.85;;;16.50;99.90;;;;;;5071325;28;20233;-71
2021/07/14 07:42:46;;;;;;;3.13;2.58;;;16.60;99.90;;;;;;5071273;28;20720;-74
2021/07/14 07:45:13;;;;;;;4.03;2.78;;;16.50;99.90;;;;;;5070565;28;20203;-73
2021/07/14 07:47:41;;;;;;;6.00;2.83;;;16.50;99.90;;;;;;5071672;28;20232;-75
2021/07/14 07:50:10;;;;;;;3.17;2.97;;;16.50;99.90;;;;;;5070994;28;20625;-75
2021/07/14 07:52:37;;;;;;;5.60;3.40;;;16.50;99.90;;;;;;5071056;28;20743;-74
2021/07/14 07:55:09;;;;;;;7.38;3.85;;;16.70;99.90;;;;;;5071729;28;20198;-74
2021/07/14 07:57:36;;;;;;;4.75;2.72;;;16.70;99.90;;;;;;5071363;28;20554;-74
2021/07/14 08:00:07;;;;;;;3.08;2.78;;;16.70;99.90;;;;;;5071733;28;20206;-72
2021/07/14 08:02:36;;;;;;;3.85;2.88;;;16.70;99.90;;;;;;5070992;28;20206;-72
2021/07/14 08:05:03;;;;;;;5.63;3.50;;;16.80;99.90;;;;;;5067742;28;20213;-71
2021/07/14 08:07:30;;;;;;;3.13;2.92;;;16.70;99.90;;;;;;5059995;28;20206;-71
2021/07/14 08:09:57;;;;;;;3.00;2.72;;;16.80;99.90;;;;;;5069994;28;20202;-71
2021/07/14 08:12:26;;;;;;;6.00;2.85;;;16.70;99.90;;;;;;5070203;28;20210;-72
2021/07/14 08:14:53;;;;;;;5.65;4.00;;;16.60;99.90;;;;;;5070960;28;20268;-71
2021/07/14 08:17:20;;;;;;;5.97;3.45;;;16.60;99.90;;;;;;5070483;28;20198;-72
2021/07/14 08:19:47;;;;;;;4.05;3.10;;;16.70;99.90;;;;;;5071270;28;20549;-72
2021/07/14 08:22:14;;;;;;;8.68;3.53;;;16.90;99.90;;;;;;5070440;28;20230;-74
2021/07/14 08:24:41;;;;;;;5.18;2.65;;;17.00;99.90;;;;;;5070481;28;20739;-71
2021/07/14 08:27:08;;;;;;;4.88;3.60;;;17.00;99.90;;;;;;5070278;28;20616;-71
2021/07/14 08:29:37;;;;;;;5.35;3.75;;;17.00;99.90;;;;;;5071231;28;20259;-70
2021/07/14 08:32:05;;;;;;;4.85;3.30;;;17.00;99.90;;;;;;5070832;28;20214;-73
2021/07/14 08:34:31;;;;;;;3.60;2.78;;;16.90;99.90;;;;;;5070693;28;20267;-74
2021/07/14 08:36:59;;;;;;;4.22;2.78;;;16.90;99.90;;;;;;5070910;28;20263;-75
2021/07/14 08:39:26;;;;;;;3.38;2.40;;;16.80;99.90;;;;;;5069843;28;20604;-74
2021/07/14 08:41:54;;;;;;;3.63;2.78;;;16.70;99.90;;;;;;5070576;28;20241;-74
2021/07/14 08:44:22;;;;;;;5.90;3.58;;;16.60;99.90;;;;;;5070241;28;20210;-72
2021/07/14 08:46:51;;;;;;;8.00;3.58;;;16.60;99.90;;;;;;5070970;28;20297;-73
2021/07/14 08:49:19;;;;;;;3.33;3.03;;;16.70;99.90;;;;;;5069766;28;20210;-72
2021/07/14 08:51:47;;;;;;;4.57;3.20;;;16.50;99.90;;;;;;5070528;28;20210;-72
2021/07/14 08:54:14;;;;;;;4.65;3.25;;;16.50;99.90;;;;;;5068521;28;20252;-76
2021/07/14 08:56:41;;;;;;;3.03;2.70;;;16.50;99.90;;;;;;5070339;28;20248;-80
2021/07/14 08:59:10;;;;;;;7.45;3.33;;;16.60;99.90;;;;;;5069709;28;20260;-79
2021/07/14 09:01:37;;;;;;;5.72;3.33;;;16.60;99.90;;;;;;5069875;28;20655;-78
2021/07/14 09:04:07;;;;;;;4.80;3.20;;;16.60;99.90;;;;;;5070759;28;20202;-76
2021/07/14 09:06:34;;;;;;;4.22;2.80;;;16.60;99.90;;;;;;5071438;28;20202;-73
2021/07/14 09:09:01;;;;;;;4.30;3.30;;;16.40;99.90;;;;;;5069734;28;20582;-77
2021/07/14 09:11:28;;;;;;;4.28;3.13;;;16.40;99.90;;;;;;5067183;28;20602;-78
2021/07/14 09:13:55;;;;;;;8.10;3.35;;;16.50;99.90;;;;;;5071436;28;20251;-79
2021/07/14 09:16:36;;;;;;;3.30;2.83;;;16.70;99.90;;;;;;5071389;28;20728;-72
2021/07/14 09:19:14;;;;;;;3.47;2.90;;;16.70;99.90;;;;;;5072878;28;20202;-74
2021/07/14 09:21:42;;;;;;;3.60;2.92;;;16.60;99.90;;;;;;5075960;28;20233;-74
2021/07/14 09:24:24;;;;;;;5.50;3.33;;;16.60;99.90;;;;;;5072377;28;20260;-74
2021/07/14 09:26:51;;;;;;;4.93;3.22;;;16.60;99.90;;;;;;5072679;28;20198;-75
2021/07/14 09:29:18;;;;;;;5.22;3.47;;;16.90;99.90;;;;;;5064617;28;20210;-74
2021/07/14 09:31:45;;;;;;;3.47;3.15;;;17.10;99.90;;;;;;5086011;28;20251;-74
2021/07/14 09:34:24;;;;;;;3.38;3.08;;;17.10;99.90;;;;;;5077341;28;20442;-73
2021/07/14 09:36:51;;;;;;;4.38;3.10;;;16.90;99.90;;;;;;5088069;28;20201;-71
2021/07/14 09:39:33;;;;;;;2.72;2.53;;;16.70;99.90;;;;;;5086908;28;20587;-72
2021/07/14 09:42:06;;;;;;;3.40;3.05;;;16.80;99.90;;;;;;5091478;28;20285;-72
2021/07/14 09:44:33;;;;;;;4.30;3.25;;;16.80;99.90;;;;;;5089195;28;20669;-71
2021/07/14 09:47:10;;;;;;;3.75;3.00;;;16.80;99.90;;;;;;5090465;28;20209;-75
2021/07/14 09:49:39;;;;;;;6.10;3.63;;;16.90;99.90;;;;;;5087003;28;20247;-70
2021/07/14 09:52:09;;;;;;;4.10;3.70;;;16.90;99.90;;;;;;5071356;28;20251;-73
2021/07/14 09:54:36;;;;;;;7.20;3.65;;;16.90;99.90;;;;;;5074076;28;20210;-74
2021/07/14 09:57:14;;;;;;;3.35;3.05;;;16.80;99.90;;;;;;5074749;28;20677;-77
2021/07/14 09:59:42;;;;;;;5.85;4.00;;;16.90;99.90;;;;;;5076238;28;20271;-75
2021/07/14 10:02:12;;;;;;;8.27;4.40;;;17.00;99.90;;;;;;5073271;28;20229;-76
2021/07/14 10:04:41;;;;;;;5.47;3.50;;;17.10;99.90;;;;;;5073681;28;20238;-75
2021/07/14 10:07:10;;;;;;;4.45;3.65;;;17.10;99.90;;;;;;5072393;28;20210;-77
2021/07/14 10:09:38;;;;;;;4.70;3.17;;;17.20;99.90;;;;;;5072978;28;20735;-76
2021/07/14 10:12:25;;;;;;;3.35;3.05;;;17.30;99.90;;;;;;5072925;28;20248;-76
2021/07/14 10:14:52;;;;;;;6.40;4.15;;;17.30;99.90;;;;;;5073215;28;20210;-76
2021/07/14 10:17:38;;;;;;;4.13;3.83;;;17.30;99.90;;;;;;5072517;28;20275;-77
2021/07/14 10:20:29;;;;;;;3.88;2.97;;;17.30;99.90;;;;;;5073212;28;20275;-75
2021/07/14 10:22:57;;;;;;;5.00;2.90;;;17.50;99.90;;;;;;5073236;28;20256;-74
2021/07/14 10:25:25;;;;;;;2.92;2.47;;;17.80;99.90;;;;;;5072478;28;20664;-74
2021/07/14 10:27:54;;;;;;;3.08;2.10;;;17.70;99.90;;;;;;5073339;28;20210;-74
2021/07/14 10:30:23;;;;;;;3.22;2.65;;;17.40;99.90;;;;;;5072497;28;20206;-73
2021/07/14 10:32:51;;;;;;;2.63;2.25;;;17.30;99.90;;;;;;5072978;28;20264;-74
2021/07/14 10:35:20;;;;;;;2.65;2.45;;;17.40;99.90;;;;;;5072460;28;20210;-73
2021/07/14 10:37:52;;;;;;;3.00;2.47;;;17.30;99.90;;;;;;5073038;28;20202;-73
2021/07/14 10:40:21;;;;;;;3.70;2.28;;;17.40;99.90;;;;;;5072629;28;20663;-73
2021/07/14 10:42:49;;;;;;;2.05;1.85;;;17.40;99.90;;;;;;5072516;28;20280;-72
2021/07/14 10:45:16;;;;;;;2.05;1.60;;;17.40;99.90;;;;;;5072241;28;20206;-72
2021/07/14 10:47:46;;;;;;;3.15;1.73;;;17.50;99.90;;;;;;5072635;28;20206;-73
2021/07/14 10:50:14;;;;;;;2.45;2.00;;;17.70;99.90;;;;;;5072403;28;20204;-75
2021/07/14 10:52:41;;;;;;;2.13;1.83;;;17.60;99.90;;;;;;5072797;28;20275;-75
2021/07/14 10:55:13;;;;;;;1.88;1.77;;;17.80;99.90;;;;;;5072320;28;20202;-72
2021/07/14 10:57:41;;;;;;;1.88;1.77;;;18.20;99.90;;;;;;5072589;28;20593;-71
2021/07/14 11:00:10;;;;;;;2.50;2.15;;;18.70;99.90;;;;;;5072174;28;20198;-71
2021/07/14 11:02:42;;;;;;;3.00;1.75;;;18.80;99.90;;;;;;5072758;28;20238;-73
2021/07/14 11:05:10;;;;;;;1.30;1.20;;;19.10;99.90;;;;;;5069219;28;20237;-77
2021/07/14 11:07:42;;;;;;;1.48;1.35;;;19.70;99.90;;;;;;5074535;28;20636;-76
2021/07/14 11:10:25;;;;;;;2.58;1.48;;;19.90;99.90;;;;;;5073826;28;20214;-74
2021/07/14 11:12:52;;;;;;;1.23;1.10;;;20.40;99.90;;;;;;5080773;28;20227;-73
2021/07/14 11:15:34;;;;;;;0.98;0.85;;;20.30;99.90;;;;;;5071474;28;20266;-74
2021/07/14 11:18:02;;;;;;;4.05;2.00;;;20.30;99.90;;;;;;5077624;28;20271;-74
2021/07/14 11:20:40;;;;;;;1.80;1.67;;;20.20;99.90;;;;;;5078816;28;20205;-75
2021/07/14 11:23:18;;;;;;;1.50;1.13;;;19.90;99.90;;;;;;5071460;28;20809;-71
2021/07/14 11:25:51;;;;;;;1.60;1.50;;;19.60;99.90;;;;;;5071815;28;20214;-72
2021/07/14 11:28:19;;;;;;;2.22;1.63;;;19.70;99.90;;;;;;5071651;28;20210;-75
2021/07/14 11:30:48;;;;;;;1.33;1.23;;;20.10;99.90;;;;;;5071913;28;20251;-71
2021/07/14 11:33:27;;;;;;;2.30;1.38;;;20.60;99.90;;;;;;5071274;28;20264;-74
2021/07/14 11:35:57;;;;;;;1.50;1.08;;;20.90;99.90;;;;;;5071893;28;20206;-75
2021/07/14 11:38:26;;;;;;;1.38;1.17;;;21.30;99.90;;;;;;5071467;28;20726;-75
2021/07/14 11:40:56;;;;;;;1.02;1.02;;;21.30;99.90;;;;;;5071503;28;20715;-75
2021/07/14 11:43:29;;;;;;;1.20;1.10;;;21.50;99.90;;;;;;5071377;28;20263;-74
2021/07/14 11:46:03;;;;;;;1.00;1.00;;;21.30;99.90;;;;;;5071380;28;20681;-72
2021/07/14 11:48:35;;;;;;;1.70;1.60;;;20.70;99.90;;;;;;5070997;28;20208;-74
2021/07/14 11:51:05;;;;;;;1.40;1.30;;;20.90;99.90;;;;;;5071586;28;20290;-74
2021/07/14 11:53:37;;;;;;;0.85;0.85;;;20.80;99.90;;;;;;5071796;28;20206;-74
2021/07/14 11:56:07;;;;;;;1.85;1.38;;;20.50;99.90;;;;;;5071778;28;20206;-73
2021/07/14 11:58:59;;;;;;;1.20;1.10;;;20.20;99.90;;;;;;5071293;28;20206;-73
2021/07/14 12:01:47;;;;;;;1.20;1.10;;;20.40;99.90;;;;;;5070949;28;20340;-73
2021/07/14 12:04:15;;;;;;;1.58;1.48;;;20.30;99.90;;;;;;5070889;28;20206;-71
2021/07/14 12:06:44;;;;;;;1.58;1.48;;;20.50;99.90;;;;;;5070867;28;20213;-73
2021/07/14 12:09:45;;;;;;;1.60;1.50;;;20.20;99.90;;;;;;5070915;28;20230;-72
2021/07/14 12:12:22;;;;;;;1.38;1.27;;;19.80;99.90;;;;;;5009057;28;20204;-69
2021/07/14 12:14:51;;;;;;;1.73;1.63;;;20.00;99.90;;;;;;5009334;28;20212;-71
2021/07/14 12:17:20;;;;;;;1.30;1.15;;;20.40;99.90;;;;;;5041314;28;20577;-71
2021/07/14 12:19:48;;;;;;;1.33;1.13;;;20.60;99.90;;;;;;5070844;28;20206;-69
2021/07/14 12:22:17;;;;;;;2.72;1.42;;;20.80;99.90;;;;;;5069694;28;20230;-72
2021/07/14 12:24:47;;;;;;;1.67;1.40;;;20.90;99.90;;;;;;5064860;28;20211;-72
2021/07/14 12:27:20;;;;;;;1.70;1.58;;;21.20;99.90;;;;;;5073345;28;20285;-75
2021/07/14 12:29:51;;;;;;;1.70;1.60;;;21.50;99.90;;;;;;5084535;28;20204;-73
2021/07/14 12:32:29;;;;;;;6.43;2.42;;;21.80;99.90;;;;;;5079889;28;20263;-74
2021/07/14 12:34:56;;;;;;;1.90;1.80;;;21.50;99.90;;;;;;5085668;28;20742;-70
2021/07/14 12:37:23;;;;;;;2.38;2.17;;;21.60;99.90;;;;;;5074077;28;20202;-71
2021/07/14 12:39:50;;;;;;;2.38;1.67;;;21.60;99.90;;;;;;5070583;28;20259;-70
2021/07/14 12:42:21;;;;;;;2.13;1.70;;;21.70;99.90;;;;;;5070236;28;20237;-70
2021/07/14 12:44:50;;;;;;;1.90;1.27;;;21.70;99.90;;;;;;5070816;28;20202;-70
2021/07/14 12:47:18;;;;;;;2.08;1.65;;;21.80;99.90;;;;;;5070072;28;20202;-70
2021/07/14 12:49:46;;;;;;;1.42;1.30;;;22.00;99.90;;;;;;5066494;28;20198;-71
2021/07/14 12:52:16;;;;;;;1.65;1.20;;;21.80;99.90;;;;;;5070129;28;20628;-70
2021/07/14 12:54:45;;;;;;;1.65;1.55;;;21.40;99.90;;;;;;5070339;28;20289;-70
2021/07/14 12:57:24;;;;;;;1.17;1.08;;;21.00;99.90;;;;;;5070402;28;20615;-71
2021/07/14 13:00:10;;;;;;;1.13;1.10;;;21.10;99.90;;;;;;5070318;28;20210;-70
2021/07/14 13:02:41;;;;;;;0.93;0.93;;;21.20;99.90;;;;;;5069801;28;20708;-70
2021/07/14 13:05:13;;;;;;;1.70;1.60;;;21.30;99.90;;;;;;5068159;28;20286;-71
2021/07/14 13:07:44;;;;;;;2.25;1.40;;;21.50;99.90;;;;;;5067464;28;20281;-70